Fairmont, Minnesota
Current Conditions -  °F | °C
As of 2:55 AM on Sunday 23 Nov 2014 (Local Time) from KFRM Reporting Station
Overcast Overcast  
Wind Chill: 52°   Ceiling: 1800
Heat Index: 52°   Visibility: 10mi
Dew Point: 46°   Wind: 15mph
Humidity: 82%   Direction: 190°S
Pressure: 29.47"   Gusts: NA
Location:  43.65°N, 94.46°W
Report Text: KFRM 230855Z AUTO 19013KT 10SM SCT010 OVC018 11/08 A2947 RMK AO1 57010
Loading
Personal Weather Stations






























Interactive Weather Map New forecast layout! Learn more

10-Day Weather Forecast

Advertisements
Track Severe Weather on mobile